Time;durP1;ratioP1;P1;durP2;ratioP2;P2;SDS_P1;SDS_P2;PMS_P1;PMS_P2;Temp;Humidity;BMP_temperature;BMP_pressure;BME280_temperature;BME280_humidity;BME280_pressure;Samples;Min_cycle;Max_cycle;Signal;HPM_P1;HPM_P2
2023/03/14 00:02:00;;;;;;;1.90;0.70;;;10.50;99.90;;;;;;5061051;28;20032;-72
2023/03/14 00:04:26;;;;;;;2.70;0.73;;;10.60;99.90;;;;;;5062620;28;20032;-73
2023/03/14 00:06:52;;;;;;;3.42;0.80;;;10.50;99.90;;;;;;5062059;28;20860;-73
2023/03/14 00:09:19;;;;;;;3.13;0.82;;;10.50;99.90;;;;;;5060420;28;20032;-72
2023/03/14 00:11:45;;;;;;;1.40;0.65;;;10.60;99.90;;;;;;5058006;28;20059;-72
2023/03/14 00:14:11;;;;;;;6.35;0.88;;;10.60;99.90;;;;;;5063040;28;20042;-72
2023/03/14 00:16:37;;;;;;;2.45;0.80;;;10.60;99.90;;;;;;5059842;28;20380;-73
2023/03/14 00:19:04;;;;;;;2.92;0.90;;;10.60;99.90;;;;;;5063595;28;20036;-72
2023/03/14 00:21:30;;;;;;;1.38;0.60;;;10.60;99.90;;;;;;5058540;28;20035;-75
2023/03/14 00:23:56;;;;;;;4.53;1.10;;;10.50;99.90;;;;;;5063055;28;20029;-73
2023/03/14 00:26:22;;;;;;;1.80;0.77;;;10.60;99.90;;;;;;5062623;28;20047;-74
2023/03/14 00:28:52;;;;;;;3.97;0.77;;;10.60;99.90;;;;;;5056486;28;20485;-73
2023/03/14 00:31:18;;;;;;;1.92;0.88;;;10.60;99.90;;;;;;5062510;28;20040;-73
2023/03/14 00:33:45;;;;;;;2.72;0.90;;;10.60;99.90;;;;;;5063122;28;20477;-73
2023/03/14 00:36:14;;;;;;;2.42;0.98;;;10.70;99.90;;;;;;5060159;28;20056;-74
2023/03/14 00:38:41;;;;;;;3.08;0.70;;;10.60;99.90;;;;;;5059863;28;20041;-74
2023/03/14 00:41:10;;;;;;;2.58;1.02;;;10.50;99.90;;;;;;5055680;28;20036;-73
2023/03/14 00:43:37;;;;;;;1.48;0.80;;;10.50;99.90;;;;;;5055220;28;20049;-73
2023/03/14 00:46:04;;;;;;;3.47;0.93;;;10.60;99.90;;;;;;5061350;28;20033;-73
2023/03/14 00:48:31;;;;;;;4.30;1.02;;;10.60;99.90;;;;;;5062713;28;20390;-76
2023/03/14 00:50:57;;;;;;;3.33;0.93;;;10.50;99.90;;;;;;5061256;28;20033;-73
2023/03/14 00:53:23;;;;;;;4.63;0.70;;;10.50;99.90;;;;;;5059771;28;20048;-74
2023/03/14 00:55:50;;;;;;;2.30;0.90;;;10.50;99.90;;;;;;5058099;28;20050;-72
2023/03/14 00:58:17;;;;;;;1.92;0.82;;;10.60;99.90;;;;;;5062466;28;20350;-73
2023/03/14 01:00:44;;;;;;;3.38;1.25;;;10.60;99.90;;;;;;5071259;28;20056;-74
2023/03/14 01:03:12;;;;;;;2.65;1.20;;;10.60;99.90;;;;;;5068345;28;20351;-74
2023/03/14 01:05:38;;;;;;;2.58;0.95;;;10.50;99.90;;;;;;5055298;28;20040;-74
2023/03/14 01:08:06;;;;;;;4.93;1.13;;;10.50;99.90;;;;;;5077670;28;20040;-74
2023/03/14 01:10:37;;;;;;;3.50;0.80;;;10.40;99.90;;;;;;5060040;28;20051;-76
2023/03/14 01:13:04;;;;;;;3.75;1.15;;;10.50;99.90;;;;;;5053560;28;20466;-73
2023/03/14 01:15:32;;;;;;;2.33;0.73;;;10.40;99.90;;;;;;5078102;28;20036;-74
2023/03/14 01:17:59;;;;;;;2.58;1.08;;;10.50;99.90;;;;;;5061078;28;20041;-74
2023/03/14 01:20:25;;;;;;;3.95;1.08;;;10.50;99.90;;;;;;5062159;28;20040;-73
2023/03/14 01:22:53;;;;;;;2.00;0.93;;;10.50;99.90;;;;;;5045362;28;20045;-75
2023/03/14 01:25:19;;;;;;;2.53;0.90;;;10.60;99.90;;;;;;5060611;28;20044;-74
2023/03/14 01:27:46;;;;;;;1.85;0.90;;;10.60;99.90;;;;;;5061265;28;20037;-74
2023/03/14 01:30:13;;;;;;;1.52;0.60;;;10.50;99.90;;;;;;5074656;28;20063;-73
2023/03/14 01:32:39;;;;;;;3.47;0.80;;;10.50;99.90;;;;;;5065203;28;20461;-74
2023/03/14 01:35:07;;;;;;;3.75;1.00;;;10.50;99.90;;;;;;5063737;28;20517;-74
2023/03/14 01:37:34;;;;;;;1.58;0.70;;;10.50;99.90;;;;;;5067172;28;20041;-76
2023/03/14 01:40:00;;;;;;;5.35;1.23;;;10.50;99.90;;;;;;5062266;28;20045;-74
2023/03/14 01:42:27;;;;;;;4.90;1.30;;;10.50;99.90;;;;;;5062830;28;20059;-74
2023/03/14 01:44:58;;;;;;;2.65;1.20;;;10.50;99.90;;;;;;5064776;28;20040;-72
2023/03/14 01:47:26;;;;;;;3.47;1.13;;;10.60;99.90;;;;;;5057375;28;20041;-73
2023/03/14 01:49:57;;;;;;;3.70;1.08;;;10.60;99.90;;;;;;5063815;28;20040;-73
2023/03/14 01:52:33;;;;;;;3.55;1.02;;;10.60;99.90;;;;;;5054059;28;20493;-74
2023/03/14 01:55:07;;;;;;;3.42;1.00;;;10.60;99.90;;;;;;5064726;28;20036;-73
2023/03/14 01:57:39;;;;;;;2.42;0.70;;;10.50;99.90;;;;;;5065387;28;20482;-73
2023/03/14 02:00:17;;;;;;;1.60;1.00;;;10.50;99.90;;;;;;5066079;28;20370;-73
2023/03/14 02:02:53;;;;;;;4.63;1.00;;;10.40;99.90;;;;;;5057585;28;20041;-74
2023/03/14 02:05:24;;;;;;;2.88;1.02;;;10.40;99.90;;;;;;5050043;28;20040;-72
2023/03/14 02:08:02;;;;;;;2.65;0.90;;;10.50;99.90;;;;;;5058683;28;20041;-73
2023/03/14 02:10:38;;;;;;;2.78;0.82;;;10.50;99.90;;;;;;5053681;28;20505;-73
2023/03/14 02:13:06;;;;;;;2.88;0.90;;;10.40;99.90;;;;;;5066929;28;20493;-73
2023/03/14 02:15:46;;;;;;;1.35;0.80;;;10.40;99.90;;;;;;5059175;28;20037;-73
2023/03/14 02:18:30;;;;;;;3.42;1.00;;;10.50;99.90;;;;;;5062341;28;20497;-72
2023/03/14 02:21:51;;;;;;;2.65;0.65;;;10.50;99.90;;;;;;5046216;28;20049;-72
2023/03/14 02:24:36;;;;;;;3.60;1.08;;;10.50;99.90;;;;;;5055351;28;20553;-73
2023/03/14 02:27:07;;;;;;;3.15;0.90;;;10.50;99.90;;;;;;5049078;28;20051;-72
2023/03/14 02:29:39;;;;;;;2.90;1.13;;;10.50;99.90;;;;;;5062684;28;20045;-75
2023/03/14 02:32:06;;;;;;;7.32;1.30;;;10.60;99.90;;;;;;5076444;28;20044;-72
2023/03/14 02:34:33;;;;;;;4.00;0.90;;;10.50;99.90;;;;;;5061938;28;20051;-73
2023/03/14 02:37:00;;;;;;;4.65;0.95;;;10.60;99.90;;;;;;5062092;28;20421;-72
2023/03/14 02:39:36;;;;;;;3.33;1.00;;;10.50;99.90;;;;;;5079439;28;20400;-73
2023/03/14 02:42:03;;;;;;;3.08;1.00;;;10.50;99.90;;;;;;5062223;28;20045;-72
2023/03/14 02:44:29;;;;;;;6.57;1.38;;;10.60;99.90;;;;;;5063129;28;20045;-73
2023/03/14 02:46:56;;;;;;;4.57;0.73;;;10.50;99.90;;;;;;5045416;28;20059;-72
2023/03/14 02:49:23;;;;;;;1.58;0.50;;;10.60;99.90;;;;;;5079671;28;20388;-72
2023/03/14 02:51:49;;;;;;;4.25;1.20;;;10.60;99.90;;;;;;5064082;28;20024;-73
2023/03/14 02:54:16;;;;;;;3.97;0.90;;;10.50;99.90;;;;;;5075551;28;20041;-72
2023/03/14 02:56:42;;;;;;;2.85;0.80;;;10.50;99.90;;;;;;5052641;28;20048;-72
2023/03/14 02:59:11;;;;;;;3.00;0.80;;;10.50;99.90;;;;;;5045821;28;20040;-72
2023/03/14 03:01:45;;;;;;;4.07;1.15;;;10.40;99.90;;;;;;5054104;28;20051;-73
2023/03/14 03:04:11;;;;;;;2.67;0.77;;;10.40;99.90;;;;;;5062009;28;20745;-73
2023/03/14 03:06:37;;;;;;;3.42;1.30;;;10.30;99.90;;;;;;5060019;28;20037;-74
2023/03/14 03:09:04;;;;;;;3.05;1.50;;;10.30;99.90;;;;;;5063315;28;20035;-73
2023/03/14 03:11:31;;;;;;;3.42;1.10;;;10.30;99.90;;;;;;5064787;28;20048;-73
2023/03/14 03:13:57;;;;;;;3.70;1.00;;;10.30;99.90;;;;;;5062514;28;20029;-73
2023/03/14 03:16:24;;;;;;;3.40;0.75;;;10.30;99.90;;;;;;5036506;28;20052;-72
2023/03/14 03:18:50;;;;;;;3.20;1.00;;;10.20;99.90;;;;;;5063121;28;20039;-73
2023/03/14 03:21:16;;;;;;;2.47;0.80;;;10.30;99.90;;;;;;5061959;28;20033;-72
2023/03/14 03:23:43;;;;;;;4.78;0.90;;;10.20;99.90;;;;;;5062159;28;20409;-72
2023/03/14 03:26:10;;;;;;;6.45;1.77;;;10.30;99.90;;;;;;5059444;28;20398;-73
2023/03/14 03:28:36;;;;;;;4.28;1.02;;;10.30;99.90;;;;;;5064128;28;20041;-75
2023/03/14 03:31:07;;;;;;;9.57;2.67;;;10.20;99.90;;;;;;5062840;28;20048;-72
2023/03/14 03:33:36;;;;;;;7.60;1.38;;;10.10;99.90;;;;;;5043311;28;20386;-73
2023/03/14 03:36:03;;;;;;;4.25;1.40;;;10.10;99.90;;;;;;5055876;28;20033;-72
2023/03/14 03:38:33;;;;;;;6.65;1.33;;;10.10;99.90;;;;;;5053905;28;20051;-72
2023/03/14 03:41:08;;;;;;;8.00;2.40;;;10.10;99.90;;;;;;5069634;28;20243;-72
2023/03/14 03:43:35;;;;;;;4.88;1.60;;;10.20;99.90;;;;;;5064104;28;20052;-73
2023/03/14 03:46:04;;;;;;;2.92;0.95;;;10.10;99.90;;;;;;5052786;28;20045;-73
2023/03/14 03:48:31;;;;;;;1.60;0.65;;;10.10;99.90;;;;;;5054804;28;20045;-73
2023/03/14 03:51:00;;;;;;;3.95;0.80;;;10.10;99.90;;;;;;5062976;28;20049;-72
2023/03/14 03:53:27;;;;;;;4.53;0.80;;;10.00;99.90;;;;;;5062653;28;20052;-73
2023/03/14 03:55:53;;;;;;;4.00;1.10;;;10.10;99.90;;;;;;5059882;28;20032;-72
2023/03/14 03:58:19;;;;;;;1.58;0.80;;;9.90;99.90;;;;;;5075921;28;20048;-73
2023/03/14 04:00:45;;;;;;;3.80;2.05;;;9.80;99.90;;;;;;5050040;28;20076;-73
2023/03/14 04:03:12;;;;;;;2.03;0.55;;;9.80;99.90;;;;;;5042989;28;20052;-73
2023/03/14 04:05:38;;;;;;;5.30;0.70;;;9.70;99.90;;;;;;5075661;28;20398;-75
2023/03/14 04:08:08;;;;;;;1.48;0.60;;;9.80;99.90;;;;;;5060494;28;20496;-73
2023/03/14 04:10:35;;;;;;;4.07;0.90;;;9.70;99.90;;;;;;5076413;28;20052;-72
2023/03/14 04:13:21;;;;;;;3.42;0.63;;;9.60;99.90;;;;;;5049996;28;20048;-73
2023/03/14 04:15:52;;;;;;;5.88;0.88;;;9.70;99.90;;;;;;5059445;28;20056;-72
2023/03/14 04:18:26;;;;;;;2.92;0.90;;;9.70;99.90;;;;;;5063867;28;20044;-73
2023/03/14 04:20:56;;;;;;;5.85;0.80;;;9.80;99.90;;;;;;5059784;28;20036;-72
2023/03/14 04:23:27;;;;;;;2.22;0.63;;;9.80;99.90;;;;;;5062143;28;20032;-72
2023/03/14 04:25:54;;;;;;;2.10;0.73;;;9.60;99.90;;;;;;5047530;28;20481;-73
2023/03/14 04:28:22;;;;;;;5.85;0.55;;;9.50;99.90;;;;;;5061633;28;20051;-72
2023/03/14 04:30:48;;;;;;;2.83;0.65;;;9.60;99.90;;;;;;5062620;28;20039;-73
2023/03/14 04:33:20;;;;;;;4.20;0.68;;;9.60;99.90;;;;;;5069108;28;20041;-73
2023/03/14 04:35:53;;;;;;;;;;;9.50;99.90;;;;;;5053734;28;20056;-73
2023/03/14 04:38:19;;;;;;;1.38;0.50;;;9.40;99.90;;;;;;5058242;28;19908;-73
2023/03/14 04:40:47;;;;;;;1.58;0.57;;;9.50;99.90;;;;;;5051872;28;20520;-73
2023/03/14 04:43:14;;;;;;;3.90;0.90;;;9.40;99.90;;;;;;5050257;28;20053;-72
2023/03/14 04:45:48;;;;;;;2.13;0.90;;;9.40;99.90;;;;;;5058931;28;20481;-73
2023/03/14 04:48:14;;;;;;;5.20;0.88;;;9.40;99.90;;;;;;5062657;28;20458;-73
2023/03/14 04:50:41;;;;;;;5.00;0.93;;;9.50;99.90;;;;;;5048733;28;20037;-75
2023/03/14 04:53:07;;;;;;;2.65;0.90;;;9.40;99.90;;;;;;5053691;28;20111;-72
2023/03/14 04:55:35;;;;;;;1.52;0.73;;;9.40;99.90;;;;;;5057671;28;20044;-73
2023/03/14 04:58:01;;;;;;;4.10;0.88;;;9.50;99.90;;;;;;5060302;28;20124;-72
2023/03/14 05:00:28;;;;;;;5.28;0.70;;;9.40;99.90;;;;;;5061612;28;20048;-72
2023/03/14 05:03:14;;;;;;;1.77;0.65;;;9.40;99.90;;;;;;5061641;28;20028;-72
2023/03/14 05:05:51;;;;;;;1.95;0.60;;;9.50;99.90;;;;;;5046868;28;20044;-73
2023/03/14 05:08:40;;;;;;;3.85;0.82;;;9.60;99.90;;;;;;5059273;28;20040;-73
2023/03/14 05:11:14;;;;;;;1.75;0.63;;;9.60;99.90;;;;;;5064023;28;20489;-72
2023/03/14 05:14:10;;;;;;;3.75;0.70;;;9.60;99.90;;;;;;5048471;28;20393;-72
2023/03/14 05:16:54;;;;;;;1.25;0.50;;;9.60;99.90;;;;;;5057691;28;20041;-72
2023/03/14 05:19:44;;;;;;;5.80;0.82;;;9.60;99.90;;;;;;5045533;28;20047;-75
2023/03/14 05:22:34;;;;;;;1.80;0.50;;;9.50;99.90;;;;;;5055293;28;20049;-72
2023/03/14 05:25:12;;;;;;;1.15;0.45;;;9.60;99.90;;;;;;5060276;28;20053;-72
2023/03/14 05:27:39;;;;;;;1.70;0.55;;;9.70;99.90;;;;;;5059621;28;20036;-72
2023/03/14 05:30:20;;;;;;;;;;;9.70;99.90;;;;;;5064125;28;20035;-72
2023/03/14 05:32:46;;;;;;;7.07;2.45;;;9.60;99.90;;;;;;5057280;28;19909;-76
2023/03/14 05:35:38;;;;;;;3.65;0.95;;;9.60;96.70;;;;;;5049098;28;20044;-73
2023/03/14 05:38:07;;;;;;;4.93;0.90;;;9.70;99.90;;;;;;5063621;28;20037;-73
2023/03/14 05:40:47;;;;;;;1.90;0.60;;;9.70;99.90;;;;;;5067923;28;20057;-73
2023/03/14 05:43:31;;;;;;;1.25;0.60;;;9.70;99.90;;;;;;5070714;28;20048;-73
2023/03/14 05:46:11;;;;;;;1.10;0.60;;;9.80;99.90;;;;;;5070577;28;20036;-74
2023/03/14 05:48:58;;;;;;;1.48;0.70;;;9.80;73.80;;;;;;5031167;28;20048;-74
2023/03/14 05:51:47;;;;;;;3.28;0.65;;;10.00;99.90;;;;;;5059115;28;20047;-75
2023/03/14 05:54:32;;;;;;;3.30;0.80;;;9.90;87.10;;;;;;5055568;28;20509;-74
2023/03/14 05:57:19;;;;;;;1.50;0.43;;;10.00;86.30;;;;;;5074101;28;20045;-74
2023/03/14 06:00:11;;;;;;;2.40;0.40;;;9.90;85.90;;;;;;5060159;28;20049;-74
2023/03/14 06:02:49;;;;;;;3.85;0.60;;;9.90;66.90;;;;;;5052291;28;20044;-74
2023/03/14 06:05:22;;;;;;;3.35;1.17;;;9.90;53.00;;;;;;5073565;28;20066;-74
2023/03/14 06:07:50;;;;;;;3.42;0.57;;;10.00;73.70;;;;;;5074077;28;20113;-73
2023/03/14 06:10:17;;;;;;;2.78;0.57;;;9.90;33.40;;;;;;5057207;28;20067;-74
2023/03/14 06:12:43;;;;;;;1.95;0.60;;;10.00;60.90;;;;;;5077412;28;20056;-79
2023/03/14 06:15:10;;;;;;;4.78;0.68;;;10.00;43.80;;;;;;5057891;28;20040;-74
2023/03/14 06:17:36;;;;;;;5.45;1.35;;;10.00;50.30;;;;;;5065393;28;20044;-74
2023/03/14 06:20:09;;;;;;;2.63;0.75;;;10.00;29.00;;;;;;5057708;28;20037;-75
2023/03/14 06:22:35;;;;;;;5.45;1.77;;;10.00;42.10;;;;;;5081357;28;20033;-74
2023/03/14 06:25:03;;;;;;;1.65;0.80;;;10.10;38.20;;;;;;5066178;28;20037;-73
2023/03/14 06:27:30;;;;;;;1.27;0.50;;;10.00;20.50;;;;;;5062993;28;20048;-73
2023/03/14 06:29:57;;;;;;;2.95;0.50;;;10.00;25.90;;;;;;5063847;28;20048;-74
2023/03/14 06:32:25;;;;;;;2.83;0.45;;;10.10;35.50;;;;;;5063794;28;20040;-74
2023/03/14 06:34:54;;;;;;;2.20;0.50;;;10.20;39.40;;;;;;5055197;28;20044;-74
2023/03/14 06:37:20;;;;;;;5.03;0.82;;;10.20;33.40;;;;;;5065754;28;20508;-73
2023/03/14 06:39:47;;;;;;;1.27;0.35;;;10.20;32.20;;;;;;5052607;28;20041;-74
2023/03/14 06:42:33;;;;;;;1.92;0.40;;;10.20;20.20;;;;;;5061897;28;20064;-74
2023/03/14 06:44:59;;;;;;;2.95;1.02;;;10.20;1.00;;;;;;5075165;28;20056;-74
2023/03/14 06:47:26;;;;;;;4.78;0.88;;;10.20;1.00;;;;;;5077515;28;20048;-74
2023/03/14 06:49:52;;;;;;;1.45;0.50;;;10.20;1.00;;;;;;5063091;28;20393;-74
2023/03/14 06:52:19;;;;;;;2.35;0.60;;;10.10;1.00;;;;;;5056627;28;20033;-76
2023/03/14 06:54:45;;;;;;;1.88;0.60;;;10.10;1.00;;;;;;5051400;28;20049;-74
2023/03/14 06:57:11;;;;;;;2.03;0.73;;;10.10;1.00;;;;;;5062117;28;20033;-74
2023/03/14 06:59:37;;;;;;;5.07;0.63;;;10.00;2.10;;;;;;5066873;28;20032;-74
2023/03/14 07:02:03;;;;;;;4.63;0.90;;;10.10;5.60;;;;;;5058382;28;20039;-74
2023/03/14 07:04:29;;;;;;;1.50;0.60;;;10.10;1.00;;;;;;5053669;28;20037;-75
2023/03/14 07:06:55;;;;;;;1.83;0.90;;;10.10;1.00;;;;;;5045329;28;20401;-74
2023/03/14 07:09:22;;;;;;;3.60;0.60;;;10.20;1.00;;;;;;5061591;28;20037;-73
2023/03/14 07:11:53;;;;;;;3.88;0.75;;;10.20;1.00;;;;;;5063300;28;20052;-74
2023/03/14 07:14:19;;;;;;;6.18;1.08;;;10.20;1.00;;;;;;5062962;28;20469;-74
2023/03/14 07:16:46;;;;;;;3.17;0.88;;;10.30;1.00;;;;;;5056502;28;20040;-75
2023/03/14 07:19:12;;;;;;;6.07;1.63;;;10.40;1.00;;;;;;5063666;28;20394;-74
2023/03/14 07:21:38;;;;;;;2.63;0.50;;;10.40;1.00;;;;;;5054452;28;20418;-74
2023/03/14 07:24:08;;;;;;;2.55;0.52;;;10.50;1.00;;;;;;5077625;28;20044;-74
2023/03/14 07:26:35;;;;;;;3.83;1.25;;;10.70;1.00;;;;;;5062361;28;20052;-76
2023/03/14 07:29:03;;;;;;;1.58;0.45;;;10.70;1.00;;;;;;5060736;28;20045;-76
2023/03/14 07:31:29;;;;;;;3.65;0.70;;;10.70;1.00;;;;;;5049442;28;20493;-75
2023/03/14 07:33:56;;;;;;;3.10;1.20;;;10.70;1.00;;;;;;5061360;28;20040;-74
2023/03/14 07:36:24;;;;;;;3.05;0.63;;;10.70;1.00;;;;;;5085767;28;20042;-75
2023/03/14 07:38:51;;;;;;;5.40;1.00;;;10.80;1.00;;;;;;5063115;28;20063;-75
2023/03/14 07:41:31;;;;;;;4.68;0.98;;;10.90;1.00;;;;;;5057049;28;20056;-75
2023/03/14 07:44:16;;;;;;;2.42;1.35;;;10.90;1.00;;;;;;5062377;28;20041;-75
2023/03/14 07:46:42;;;;;;;3.88;0.90;;;11.10;1.00;;;;;;5048145;28;20025;-75
2023/03/14 07:49:08;;;;;;;3.05;1.50;;;11.20;1.00;;;;;;5060811;28;20401;-75
2023/03/14 07:51:34;;;;;;;2.58;0.88;;;11.30;1.00;;;;;;5060999;28;20462;-77
2023/03/14 07:54:00;;;;;;;3.35;0.70;;;11.40;1.00;;;;;;5058068;28;20029;-73
2023/03/14 07:56:26;;;;;;;2.33;0.73;;;11.30;1.00;;;;;;5061816;28;20141;-73
2023/03/14 07:58:53;;;;;;;4.38;0.50;;;11.30;1.00;;;;;;5054407;28;20044;-73
2023/03/14 08:01:19;;;;;;;2.80;1.00;;;11.30;1.00;;;;;;5058367;28;20033;-73
2023/03/14 08:03:45;;;;;;;1.17;0.40;;;11.30;1.00;;;;;;5058391;28;20040;-75
2023/03/14 08:06:11;;;;;;;2.70;0.60;;;11.30;1.00;;;;;;5063603;28;20475;-75
2023/03/14 08:08:38;;;;;;;2.00;0.52;;;11.30;1.00;;;;;;5058341;28;20036;-74
2023/03/14 08:11:08;;;;;;;1.67;0.60;;;11.40;1.00;;;;;;5061212;28;20407;-74
2023/03/14 08:13:35;;;;;;;2.63;0.40;;;11.50;1.00;;;;;;5057184;28;20045;-75
2023/03/14 08:16:01;;;;;;;6.90;0.93;;;11.60;1.00;;;;;;5060534;28;20040;-74
2023/03/14 08:18:28;;;;;;;2.72;1.15;;;11.70;1.00;;;;;;5061295;28;20024;-73
2023/03/14 08:20:54;;;;;;;2.20;0.50;;;11.80;1.00;;;;;;5072154;28;20048;-74
2023/03/14 08:23:20;;;;;;;1.77;0.38;;;11.80;1.00;;;;;;5060939;28;20043;-73
2023/03/14 08:25:49;;;;;;;1.65;0.60;;;11.90;1.00;;;;;;5048741;28;20032;-78
2023/03/14 08:28:15;;;;;;;3.40;0.75;;;12.00;1.00;;;;;;5061047;28;20044;-74
2023/03/14 08:30:42;;;;;;;3.90;0.65;;;12.20;1.00;;;;;;5062022;28;20036;-74
2023/03/14 08:33:08;;;;;;;1.88;0.43;;;12.20;1.00;;;;;;5056730;28;20029;-73
2023/03/14 08:35:34;;;;;;;4.22;0.80;;;12.10;1.00;;;;;;5060537;28;20041;-74
2023/03/14 08:38:01;;;;;;;1.98;0.75;;;11.90;1.00;;;;;;5058516;28;20033;-74
2023/03/14 08:40:27;;;;;;;1.83;0.60;;;11.80;1.00;;;;;;5062933;28;20032;-74
2023/03/14 08:42:53;;;;;;;3.50;0.63;;;11.90;1.00;;;;;;5061717;28;20052;-74
2023/03/14 08:45:19;;;;;;;4.60;0.88;;;11.90;1.00;;;;;;5059202;28;20037;-74
2023/03/14 08:47:46;;;;;;;4.88;0.85;;;11.80;1.00;;;;;;5059215;28;20032;-73
2023/03/14 08:50:13;;;;;;;4.15;0.70;;;11.80;1.00;;;;;;5063341;28;20060;-74
2023/03/14 08:52:40;;;;;;;2.60;0.60;;;11.80;1.00;;;;;;5061397;28;20346;-73
2023/03/14 08:55:08;;;;;;;4.28;0.68;;;11.80;1.00;;;;;;5060951;28;20033;-73
2023/03/14 08:57:34;;;;;;;5.25;0.73;;;11.90;1.00;;;;;;5059672;28;20096;-75
2023/03/14 09:00:10;;;;;;;6.40;1.08;;;11.90;1.00;;;;;;5054214;28;20037;-74
2023/03/14 09:02:36;;;;;;;1.83;0.40;;;11.90;1.00;;;;;;5058433;28;20048;-73
2023/03/14 09:05:03;;;;;;;1.45;0.50;;;11.90;1.00;;;;;;5057178;28;20025;-73
2023/03/14 09:07:29;;;;;;;3.92;0.60;;;11.90;1.00;;;;;;5055316;28;20462;-73
2023/03/14 09:09:55;;;;;;;0.85;0.20;;;12.00;1.00;;;;;;5055995;28;20043;-73
2023/03/14 09:12:21;;;;;;;0.35;0.35;;;12.00;1.00;;;;;;5066775;28;20041;-73
2023/03/14 09:14:47;;;;;;;1.60;0.20;;;12.00;1.00;;;;;;5059343;28;20047;-73
2023/03/14 09:17:13;;;;;;;2.10;0.40;;;12.00;1.00;;;;;;5061109;28;20044;-73
2023/03/14 09:19:40;;;;;;;1.40;0.30;;;12.10;1.00;;;;;;5060678;28;20469;-73
2023/03/14 09:22:06;;;;;;;2.30;0.47;;;12.10;1.00;;;;;;5061111;28;20037;-73
2023/03/14 09:24:32;;;;;;;2.50;0.30;;;12.40;1.00;;;;;;5059488;28;20039;-72
2023/03/14 09:26:58;;;;;;;2.47;0.50;;;12.40;1.00;;;;;;5056959;28;20044;-72
2023/03/14 09:29:24;;;;;;;1.50;0.20;;;12.20;1.00;;;;;;5062409;28;20055;-74
2023/03/14 09:31:51;;;;;;;0.82;0.22;;;12.30;1.00;;;;;;5063623;28;20044;-75
2023/03/14 09:34:17;;;;;;;1.90;0.43;;;12.40;1.00;;;;;;5063870;28;20047;-72
2023/03/14 09:36:44;;;;;;;1.50;0.47;;;12.40;1.00;;;;;;5061101;28;20033;-72
2023/03/14 09:39:11;;;;;;;1.95;0.43;;;12.40;1.00;;;;;;5058015;28;20055;-72
2023/03/14 09:41:44;;;;;;;2.85;0.50;;;12.50;1.00;;;;;;5061482;28;20363;-73
2023/03/14 09:44:15;;;;;;;3.80;0.60;;;12.60;1.00;;;;;;5058772;28;20044;-74
2023/03/14 09:46:47;;;;;;;1.25;0.52;;;12.60;1.00;;;;;;5058196;28;20051;-71
2023/03/14 09:49:32;;;;;;;2.92;0.30;;;12.50;1.00;;;;;;5062116;28;20048;-72
2023/03/14 09:52:01;;;;;;;1.15;0.30;;;12.20;1.00;;;;;;5060047;28;20033;-73
2023/03/14 09:54:36;;;;;;;0.95;0.20;;;12.20;1.00;;;;;;5064999;28;20040;-72
2023/03/14 09:57:05;;;;;;;1.15;0.30;;;12.30;1.00;;;;;;5053117;28;20025;-72
2023/03/14 09:59:34;;;;;;;2.90;0.30;;;12.30;1.00;;;;;;5053425;28;20462;-73
2023/03/14 10:02:02;;;;;;;1.35;0.20;;;12.20;1.00;;;;;;5055389;28;20059;-73
2023/03/14 10:04:29;;;;;;;1.02;0.35;;;12.00;1.00;;;;;;5061437;28;20458;-73
2023/03/14 10:06:56;;;;;;;1.73;0.30;;;12.20;1.00;;;;;;5059727;28;20028;-74
2023/03/14 10:09:26;;;;;;;4.30;1.40;;;12.10;1.00;;;;;;5060716;28;20381;-74
2023/03/14 10:11:57;;;;;;;0.30;0.20;;;12.10;1.00;;;;;;5059931;28;20037;-79
2023/03/14 10:14:33;;;;;;;1.13;0.35;;;12.30;1.00;;;;;;5057977;28;20028;-72
2023/03/14 10:17:13;;;;;;;3.03;0.52;;;12.40;1.00;;;;;;5056340;28;20037;-72
2023/03/14 10:19:59;;;;;;;1.42;0.30;;;12.40;1.00;;;;;;5056851;28;20021;-72
2023/03/14 10:22:29;;;;;;;1.65;0.25;;;12.30;1.00;;;;;;5055070;28;20037;-73
2023/03/14 10:24:59;;;;;;;2.40;0.38;;;12.30;1.00;;;;;;5055866;28;20028;-73
2023/03/14 10:27:31;;;;;;;1.20;0.38;;;12.30;1.00;;;;;;5053317;28;20025;-73
2023/03/14 10:30:00;;;;;;;1.25;0.30;;;12.30;1.00;;;;;;5051288;28;20382;-72
2023/03/14 10:32:36;;;;;;;0.98;0.47;;;12.20;1.00;;;;;;5055203;28;20044;-72
2023/03/14 10:35:15;;;;;;;2.40;0.60;;;12.10;1.00;;;;;;5057471;28;20044;-74
2023/03/14 10:37:54;;;;;;;1.35;0.47;;;12.00;1.00;;;;;;5056059;28;20040;-73
2023/03/14 10:40:28;;;;;;;3.85;0.57;;;11.90;1.00;;;;;;5057250;28;20028;-75
2023/03/14 10:42:55;;;;;;;1.17;0.60;;;11.80;1.00;;;;;;5066168;28;20049;-77
2023/03/14 10:45:32;;;;;;;1.25;0.98;;;11.90;1.00;;;;;;5055358;28;20044;-74
2023/03/14 10:48:07;;;;;;;2.60;0.70;;;11.90;1.00;;;;;;5062488;28;20029;-74
2023/03/14 10:50:36;;;;;;;2.08;0.80;;;11.90;1.00;;;;;;5058848;28;20343;-75
2023/03/14 10:53:05;;;;;;;1.52;0.40;;;11.90;1.00;;;;;;5057917;28;20384;-75
2023/03/14 10:55:45;;;;;;;2.45;0.40;;;11.80;1.00;;;;;;5056043;28;20025;-74
2023/03/14 10:58:25;;;;;;;1.73;0.77;;;11.70;1.00;;;;;;5054323;28;20123;-75
2023/03/14 11:01:21;;;;;;;2.43;0.40;;;11.60;1.00;;;;;;5061298;28;20040;-77
2023/03/14 11:04:04;;;;;;;0.50;0.30;;;11.40;1.00;;;;;;5030321;28;20052;-76
2023/03/14 11:06:38;;;;;;;1.77;0.63;;;11.30;1.00;;;;;;5054747;28;20040;-74
2023/03/14 11:09:20;;;;;;;0.80;0.47;;;11.20;1.00;;;;;;5055601;28;20037;-75
2023/03/14 11:11:47;;;;;;;0.90;0.30;;;11.20;1.00;;;;;;5071653;28;20377;-75
2023/03/14 11:14:20;;;;;;;1.50;0.40;;;11.20;1.00;;;;;;5057957;28;20047;-76
2023/03/14 11:17:04;;;;;;;0.80;0.40;;;11.20;7.90;;;;;;5064058;28;20041;-76
2023/03/14 11:19:52;;;;;;;2.05;0.38;;;11.10;7.20;;;;;;5059010;28;20033;-75
2023/03/14 11:22:25;;;;;;;1.50;0.40;;;11.10;5.80;;;;;;5060668;28;20442;-76
2023/03/14 11:25:02;;;;;;;2.42;0.38;;;11.10;5.40;;;;;;5053813;28;20056;-78
2023/03/14 11:27:58;;;;;;;0.82;0.28;;;11.00;2.00;;;;;;5063484;28;20044;-75
2023/03/14 11:30:42;;;;;;;1.23;0.40;;;11.00;3.40;;;;;;5060448;28;20039;-73
2023/03/14 11:33:18;;;;;;;0.68;0.30;;;11.00;6.40;;;;;;5053690;28;20072;-74
2023/03/14 11:35:57;;;;;;;1.25;0.32;;;10.90;10.70;;;;;;5053539;28;20025;-75
2023/03/14 11:38:46;;;;;;;4.82;0.90;;;10.90;20.10;;;;;;5063827;28;20058;-76
2023/03/14 11:41:17;;;;;;;5.05;0.85;;;10.80;23.90;;;;;;5062702;28;20033;-75
2023/03/14 11:43:48;;;;;;;3.05;1.38;;;10.80;35.60;;;;;;5059293;28;20049;-76
2023/03/14 11:46:18;;;;;;;1.25;0.55;;;10.80;49.00;;;;;;5062590;28;20036;-74
2023/03/14 11:49:12;;;;;;;6.57;2.22;;;10.80;65.20;;;;;;5060414;28;20052;-74
2023/03/14 11:51:46;;;;;;;2.35;0.60;;;10.80;72.80;;;;;;5057868;28;20032;-74
2023/03/14 11:54:18;;;;;;;1.88;0.52;;;10.80;58.10;;;;;;5053899;28;20059;-75
2023/03/14 11:56:52;;;;;;;1.00;0.50;;;10.90;29.60;;;;;;5055222;28;20037;-75
2023/03/14 11:59:26;;;;;;;1.20;0.40;;;10.80;31.00;;;;;;5056049;28;20029;-75
2023/03/14 12:02:05;;;;;;;1.05;0.40;;;10.80;1.00;;;;;;5062212;28;20041;-76
2023/03/14 12:05:15;;;;;;;0.90;0.40;;;10.80;1.00;;;;;;5056413;28;20044;-75
2023/03/14 12:08:03;;;;;;;0.52;0.30;;;10.70;1.00;;;;;;5013019;28;20055;-74
2023/03/14 12:10:36;;;;;;;0.93;0.50;;;10.50;1.00;;;;;;5063319;28;20024;-74
2023/03/14 12:13:02;;;;;;;0.30;0.30;;;10.40;1.00;;;;;;5059951;28;20037;-75
2023/03/14 12:15:29;;;;;;;1.67;0.50;;;10.50;1.00;;;;;;5058250;28;20084;-74
2023/03/14 12:17:56;;;;;;;2.35;0.85;;;10.60;1.00;;;;;;5056652;28;20029;-76
2023/03/14 12:20:24;;;;;;;1.48;0.47;;;10.70;1.00;;;;;;5063475;28;20024;-75
2023/03/14 12:23:03;;;;;;;0.98;0.30;;;10.70;1.00;;;;;;5063281;28;20041;-76
2023/03/14 12:25:32;;;;;;;1.98;0.63;;;10.80;1.00;;;;;;5061366;28;20472;-73
2023/03/14 12:28:31;;;;;;;1.85;0.70;;;10.80;1.00;;;;;;5062221;28;20036;-75
2023/03/14 12:31:31;;;;;;;1.23;0.50;;;10.90;1.00;;;;;;5058749;28;20048;-76
2023/03/14 12:34:32;;;;;;;1.60;0.50;;;11.00;1.00;;;;;;5061514;28;20044;-76
2023/03/14 12:37:19;;;;;;;0.82;0.20;;;11.00;1.00;;;;;;5051969;28;20039;-75
2023/03/14 12:40:10;;;;;;;2.53;0.50;;;10.80;1.00;;;;;;5057491;28;20059;-75
2023/03/14 12:42:43;;;;;;;3.85;1.00;;;10.60;1.00;;;;;;5060332;28;20075;-75
2023/03/14 12:45:30;;;;;;;2.38;0.90;;;10.60;1.00;;;;;;5061034;28;20041;-75
2023/03/14 12:48:08;;;;;;;2.05;1.00;;;10.50;1.00;;;;;;5058360;28;20037;-75
2023/03/14 12:50:53;;;;;;;1.58;0.50;;;10.30;99.90;;;;;;5058425;28;20036;-75
2023/03/14 12:53:47;;;;;;;1.83;0.73;;;10.30;1.00;;;;;;5047065;28;20112;-76
2023/03/14 12:56:22;;;;;;;1.38;0.55;;;10.40;99.90;;;;;;5051871;28;20040;-74
2023/03/14 12:59:06;;;;;;;1.23;0.40;;;10.40;99.90;;;;;;5055851;28;20029;-75
2023/03/14 13:01:34;;;;;;;1.52;0.57;;;10.60;99.90;;;;;;5053136;28;20047;-75
2023/03/14 13:04:09;;;;;;;2.90;1.73;;;10.70;99.90;;;;;;5053342;28;20300;-74
2023/03/14 13:06:53;;;;;;;2.88;0.50;;;10.80;99.90;;;;;;5054319;28;20029;-73
2023/03/14 13:09:31;;;;;;;2.40;0.82;;;11.00;99.90;;;;;;5056788;28;20036;-74
2023/03/14 13:12:03;;;;;;;2.97;1.48;;;11.00;99.90;;;;;;5047994;28;20033;-74
2023/03/14 13:14:31;;;;;;;1.20;0.73;;;10.90;99.90;;;;;;5057201;28;20051;-74
2023/03/14 13:17:01;;;;;;;2.28;0.60;;;10.70;99.90;;;;;;5061164;28;20029;-74